sensor_id;sensor_type;location;lat;lon;timestamp;pressure;altitude;pressure_sealevel;temperature;humidity
61318;BME280;47201;40.428;-8.436;2023-05-03T00:00:22;100100.66;;;20.16;77.54
61318;BME280;47201;40.428;-8.436;2023-05-03T00:02:24;100093.91;;;20.10;78.33
61318;BME280;47201;40.428;-8.436;2023-05-03T00:04:24;100102.16;;;20.04;78.42
61318;BME280;47201;40.428;-8.436;2023-05-03T00:06:25;100100.59;;;20.00;78.73
61318;BME280;47201;40.428;-8.436;2023-05-03T00:08:25;100100.91;;;19.94;78.39
61318;BME280;47201;40.428;-8.436;2023-05-03T00:10:26;100087.00;;;19.89;78.59
61318;BME280;47201;40.428;-8.436;2023-05-03T00:12:27;100086.34;;;19.84;79.16
61318;BME280;47201;40.428;-8.436;2023-05-03T00:14:46;100093.53;;;19.81;78.97
61318;BME280;47201;40.428;-8.436;2023-05-03T00:16:47;100099.94;;;19.77;79.48
61318;BME280;47201;40.428;-8.436;2023-05-03T00:18:48;100098.34;;;19.73;79.42
61318;BME280;47201;40.428;-8.436;2023-05-03T00:20:48;100107.25;;;19.72;79.07
61318;BME280;47201;40.428;-8.436;2023-05-03T00:22:50;100114.34;;;19.72;79.76
61318;BME280;47201;40.428;-8.436;2023-05-03T00:24:51;100113.63;;;19.68;80.07
61318;BME280;47201;40.428;-8.436;2023-05-03T00:26:51;100104.19;;;19.62;80.08
61318;BME280;47201;40.428;-8.436;2023-05-03T00:28:52;100099.84;;;19.61;80.05
61318;BME280;47201;40.428;-8.436;2023-05-03T00:31:13;100091.00;;;19.61;79.95
61318;BME280;47201;40.428;-8.436;2023-05-03T00:33:14;100087.56;;;19.59;79.85
61318;BME280;47201;40.428;-8.436;2023-05-03T00:35:15;100079.56;;;19.60;79.20
61318;BME280;47201;40.428;-8.436;2023-05-03T00:37:16;100065.91;;;19.68;77.93
61318;BME280;47201;40.428;-8.436;2023-05-03T00:39:16;100067.19;;;19.78;77.34
61318;BME280;47201;40.428;-8.436;2023-05-03T00:41:17;100059.78;;;19.85;75.75
61318;BME280;47201;40.428;-8.436;2023-05-03T00:43:17;100075.84;;;20.00;73.90
61318;BME280;47201;40.428;-8.436;2023-05-03T00:45:19;100079.28;;;20.02;74.57
61318;BME280;47201;40.428;-8.436;2023-05-03T00:47:20;100079.16;;;20.05;74.50
61318;BME280;47201;40.428;-8.436;2023-05-03T00:49:23;100065.72;;;20.08;73.90
61318;BME280;47201;40.428;-8.436;2023-05-03T00:51:25;100054.03;;;20.12;73.12
61318;BME280;47201;40.428;-8.436;2023-05-03T00:53:27;100052.75;;;20.19;70.27
61318;BME280;47201;40.428;-8.436;2023-05-03T00:55:28;100033.72;;;20.28;70.30
61318;BME280;47201;40.428;-8.436;2023-05-03T00:57:30;100032.16;;;20.40;69.59
61318;BME280;47201;40.428;-8.436;2023-05-03T00:59:31;100031.19;;;20.43;69.43
61318;BME280;47201;40.428;-8.436;2023-05-03T01:01:31;100031.19;;;20.43;70.79
61318;BME280;47201;40.428;-8.436;2023-05-03T01:03:32;100022.34;;;20.42;70.24
61318;BME280;47201;40.428;-8.436;2023-05-03T01:05:40;100004.88;;;20.38;67.77
61318;BME280;47201;40.428;-8.436;2023-05-03T01:10:09;99995.22;;;20.53;67.32
61318;BME280;47201;40.428;-8.436;2023-05-03T01:15:06;99992.50;;;20.55;68.42
61318;BME280;47201;40.428;-8.436;2023-05-03T01:17:09;100002.56;;;20.48;70.50
61318;BME280;47201;40.428;-8.436;2023-05-03T01:19:54;100015.88;;;20.31;71.96
61318;BME280;47201;40.428;-8.436;2023-05-03T01:21:34;100014.31;;;20.10;73.00
61318;BME280;47201;40.428;-8.436;2023-05-03T01:23:42;100031.78;;;19.97;73.27
61318;BME280;47201;40.428;-8.436;2023-05-03T01:25:43;100058.81;;;19.88;73.13
61318;BME280;47201;40.428;-8.436;2023-05-03T01:27:43;100061.00;;;19.78;71.61
61318;BME280;47201;40.428;-8.436;2023-05-03T01:30:03;100075.03;;;19.80;67.66
61318;BME280;47201;40.428;-8.436;2023-05-03T01:32:06;100072.41;;;19.80;70.65
61318;BME280;47201;40.428;-8.436;2023-05-03T01:36:50;100082.91;;;19.64;73.83
61318;BME280;47201;40.428;-8.436;2023-05-03T01:39:21;100068.31;;;19.55;76.14
61318;BME280;47201;40.428;-8.436;2023-05-03T01:41:24;100065.97;;;19.49;77.02
61318;BME280;47201;40.428;-8.436;2023-05-03T01:43:26;100074.22;;;19.43;76.70
61318;BME280;47201;40.428;-8.436;2023-05-03T01:45:27;100075.22;;;19.40;75.66
61318;BME280;47201;40.428;-8.436;2023-05-03T01:47:28;100066.47;;;19.38;75.92
61318;BME280;47201;40.428;-8.436;2023-05-03T01:49:30;100055.66;;;19.43;74.93
61318;BME280;47201;40.428;-8.436;2023-05-03T01:51:30;100044.84;;;19.47;73.76
61318;BME280;47201;40.428;-8.436;2023-05-03T01:53:30;100040.03;;;19.56;73.46
61318;BME280;47201;40.428;-8.436;2023-05-03T01:55:31;100041.56;;;19.60;73.00
61318;BME280;47201;40.428;-8.436;2023-05-03T01:57:50;100043.91;;;19.66;70.08
61318;BME280;47201;40.428;-8.436;2023-05-03T01:59:52;100040.97;;;19.72;68.44
61318;BME280;47201;40.428;-8.436;2023-05-03T02:01:53;100036.38;;;19.76;67.69
61318;BME280;47201;40.428;-8.436;2023-05-03T02:03:54;100023.81;;;19.79;67.59
61318;BME280;47201;40.428;-8.436;2023-05-03T02:05:54;100022.88;;;19.80;67.60
61318;BME280;47201;40.428;-8.436;2023-05-03T02:07:55;100035.97;;;19.84;66.15
61318;BME280;47201;40.428;-8.436;2023-05-03T02:09:55;100033.91;;;19.90;67.25
61318;BME280;47201;40.428;-8.436;2023-05-03T02:11:56;100035.13;;;20.01;63.69
61318;BME280;47201;40.428;-8.436;2023-05-03T02:13:56;100031.53;;;20.19;61.15
61318;BME280;47201;40.428;-8.436;2023-05-03T02:15:57;100039.63;;;20.34;60.23
61318;BME280;47201;40.428;-8.436;2023-05-03T02:17:58;100032.81;;;20.45;59.85
61318;BME280;47201;40.428;-8.436;2023-05-03T02:20:02;100028.69;;;20.56;60.17
61318;BME280;47201;40.428;-8.436;2023-05-03T02:22:06;100019.03;;;20.55;61.37
61318;BME280;47201;40.428;-8.436;2023-05-03T02:24:06;100015.59;;;20.53;61.51
61318;BME280;47201;40.428;-8.436;2023-05-03T02:26:07;100017.06;;;20.58;59.83
61318;BME280;47201;40.428;-8.436;2023-05-03T02:28:07;100016.81;;;20.63;61.24
61318;BME280;47201;40.428;-8.436;2023-05-03T02:30:27;100022.22;;;20.61;62.17
61318;BME280;47201;40.428;-8.436;2023-05-03T02:32:27;100016.97;;;20.60;64.28
61318;BME280;47201;40.428;-8.436;2023-05-03T02:34:28;99995.91;;;20.57;64.16
61318;BME280;47201;40.428;-8.436;2023-05-03T02:36:28;99994.38;;;20.53;65.97
61318;BME280;47201;40.428;-8.436;2023-05-03T02:38:41;99993.84;;;20.46;64.76
61318;BME280;47201;40.428;-8.436;2023-05-03T02:40:41;99993.94;;;20.44;63.53
61318;BME280;47201;40.428;-8.436;2023-05-03T02:42:42;99993.78;;;20.48;62.17
61318;BME280;47201;40.428;-8.436;2023-05-03T02:44:43;100004.13;;;20.52;63.77
61318;BME280;47201;40.428;-8.436;2023-05-03T02:46:45;99996.09;;;20.54;63.50
61318;BME280;47201;40.428;-8.436;2023-05-03T02:48:50;100009.41;;;20.52;63.57
61318;BME280;47201;40.428;-8.436;2023-05-03T02:50:50;100008.81;;;20.47;64.11
61318;BME280;47201;40.428;-8.436;2023-05-03T02:52:51;99991.41;;;20.41;62.91
61318;BME280;47201;40.428;-8.436;2023-05-03T02:54:52;100000.16;;;20.43;61.87
61318;BME280;47201;40.428;-8.436;2023-05-03T02:56:54;100007.88;;;20.48;61.65
61318;BME280;47201;40.428;-8.436;2023-05-03T02:58:56;100002.66;;;20.47;62.11
61318;BME280;47201;40.428;-8.436;2023-05-03T03:00:57;100016.69;;;20.49;62.50
61318;BME280;47201;40.428;-8.436;2023-05-03T03:03:00;100007.91;;;20.64;56.38
61318;BME280;47201;40.428;-8.436;2023-05-03T03:05:19;100002.78;;;20.93;55.53
61318;BME280;47201;40.428;-8.436;2023-05-03T03:07:23;99997.31;;;21.12;55.07
61318;BME280;47201;40.428;-8.436;2023-05-03T03:09:27;99994.72;;;21.27;54.88
61318;BME280;47201;40.428;-8.436;2023-05-03T03:11:28;99978.91;;;21.39;53.94
61318;BME280;47201;40.428;-8.436;2023-05-03T03:13:48;99961.09;;;21.56;53.83
61318;BME280;47201;40.428;-8.436;2023-05-03T03:15:48;99961.34;;;21.67;53.89
61318;BME280;47201;40.428;-8.436;2023-05-03T03:17:49;99967.34;;;21.71;55.02
61318;BME280;47201;40.428;-8.436;2023-05-03T03:19:50;99962.59;;;21.62;55.46
61318;BME280;47201;40.428;-8.436;2023-05-03T03:21:52;99954.88;;;21.57;56.21
61318;BME280;47201;40.428;-8.436;2023-05-03T03:23:52;99960.00;;;21.60;56.27
61318;BME280;47201;40.428;-8.436;2023-05-03T03:25:53;99959.66;;;21.50;57.16
61318;BME280;47201;40.428;-8.436;2023-05-03T03:27:54;99960.13;;;21.43;57.71
61318;BME280;47201;40.428;-8.436;2023-05-03T03:29:56;99954.22;;;21.37;58.28
61318;BME280;47201;40.428;-8.436;2023-05-03T03:31:56;99961.13;;;21.26;59.39
61318;BME280;47201;40.428;-8.436;2023-05-03T03:33:57;99973.13;;;21.17;59.41
61318;BME280;47201;40.428;-8.436;2023-05-03T03:36:01;99970.25;;;21.05;60.34
61318;BME280;47201;40.428;-8.436;2023-05-03T03:38:07;99957.72;;;20.91;60.64
61318;BME280;47201;40.428;-8.436;2023-05-03T03:40:11;99953.72;;;20.84;61.30
61318;BME280;47201;40.428;-8.436;2023-05-03T03:42:13;99957.66;;;20.77;61.42
61318;BME280;47201;40.428;-8.436;2023-05-03T03:44:14;99954.97;;;20.61;62.45
61318;BME280;47201;40.428;-8.436;2023-05-03T03:46:15;99940.59;;;20.49;63.48
61318;BME280;47201;40.428;-8.436;2023-05-03T03:48:17;99948.94;;;20.41;62.65
61318;BME280;47201;40.428;-8.436;2023-05-03T03:50:17;99939.47;;;20.37;62.99
61318;BME280;47201;40.428;-8.436;2023-05-03T03:52:19;99951.16;;;20.33;63.67
61318;BME280;47201;40.428;-8.436;2023-05-03T03:54:20;99961.53;;;20.22;65.06
61318;BME280;47201;40.428;-8.436;2023-05-03T03:56:23;99950.94;;;20.04;65.46
61318;BME280;47201;40.428;-8.436;2023-05-03T03:58:26;99963.59;;;19.99;66.29
61318;BME280;47201;40.428;-8.436;2023-05-03T04:00:27;99965.78;;;19.91;66.10
61318;BME280;47201;40.428;-8.436;2023-05-03T04:02:37;99959.25;;;19.80;65.91
61318;BME280;47201;40.428;-8.436;2023-05-03T04:04:39;99960.63;;;19.70;66.22
61318;BME280;47201;40.428;-8.436;2023-05-03T04:06:40;99955.72;;;19.62;66.06
61318;BME280;47201;40.428;-8.436;2023-05-03T04:08:44;99953.47;;;19.55;65.75
61318;BME280;47201;40.428;-8.436;2023-05-03T04:10:46;99951.75;;;19.54;64.95
61318;BME280;47201;40.428;-8.436;2023-05-03T04:12:47;99954.97;;;19.60;63.88
61318;BME280;47201;40.428;-8.436;2023-05-03T04:14:49;99953.72;;;19.68;63.79
61318;BME280;47201;40.428;-8.436;2023-05-03T04:16:51;99939.09;;;19.76;61.31
61318;BME280;47201;40.428;-8.436;2023-05-03T04:18:52;99953.00;;;19.99;59.55
61318;BME280;47201;40.428;-8.436;2023-05-03T04:21:12;99951.00;;;20.36;57.81
61318;BME280;47201;40.428;-8.436;2023-05-03T04:23:15;99939.78;;;20.63;56.50
61318;BME280;47201;40.428;-8.436;2023-05-03T04:25:16;99938.03;;;20.80;56.38
61318;BME280;47201;40.428;-8.436;2023-05-03T04:27:21;99946.69;;;20.99;55.81
61318;BME280;47201;40.428;-8.436;2023-05-03T04:29:22;99946.56;;;21.17;55.80
61318;BME280;47201;40.428;-8.436;2023-05-03T04:31:24;99942.31;;;21.29;55.73
61318;BME280;47201;40.428;-8.436;2023-05-03T04:33:27;99947.00;;;21.39;56.06
61318;BME280;47201;40.428;-8.436;2023-05-03T04:35:33;99961.47;;;21.50;55.74
61318;BME280;47201;40.428;-8.436;2023-05-03T04:37:40;99968.50;;;21.51;56.09
61318;BME280;47201;40.428;-8.436;2023-05-03T04:39:59;99963.94;;;21.53;56.92
61318;BME280;47201;40.428;-8.436;2023-05-03T04:42:00;99969.47;;;21.50;57.31
61318;BME280;47201;40.428;-8.436;2023-05-03T04:44:01;99976.16;;;21.41;58.29
61318;BME280;47201;40.428;-8.436;2023-05-03T04:46:02;99971.56;;;21.29;59.44
61318;BME280;47201;40.428;-8.436;2023-05-03T04:48:03;99971.59;;;21.13;60.55
61318;BME280;47201;40.428;-8.436;2023-05-03T04:50:05;99970.59;;;20.99;61.39
61318;BME280;47201;40.428;-8.436;2023-05-03T04:52:27;99982.41;;;20.77;62.23
61318;BME280;47201;40.428;-8.436;2023-05-03T04:54:29;99981.00;;;20.54;64.19
61318;BME280;47201;40.428;-8.436;2023-05-03T04:56:30;99983.97;;;20.32;65.01
61318;BME280;47201;40.428;-8.436;2023-05-03T04:58:53;99986.22;;;20.06;65.59
61318;BME280;47201;40.428;-8.436;2023-05-03T05:00:54;99994.44;;;19.84;66.40
61318;BME280;47201;40.428;-8.436;2023-05-03T05:03:01;99980.44;;;19.63;67.11
61318;BME280;47201;40.428;-8.436;2023-05-03T05:05:04;99994.63;;;19.44;67.29
61318;BME280;47201;40.428;-8.436;2023-05-03T05:07:23;99988.94;;;19.34;67.97
61318;BME280;47201;40.428;-8.436;2023-05-03T05:09:24;99993.69;;;19.28;67.66
61318;BME280;47201;40.428;-8.436;2023-05-03T05:11:27;99998.19;;;19.26;67.66
61318;BME280;47201;40.428;-8.436;2023-05-03T05:13:28;99997.56;;;19.21;67.25
61318;BME280;47201;40.428;-8.436;2023-05-03T05:15:30;100007.50;;;19.15;67.07
61318;BME280;47201;40.428;-8.436;2023-05-03T05:17:31;100016.56;;;19.11;67.28
61318;BME280;47201;40.428;-8.436;2023-05-03T05:19:34;100019.50;;;19.05;66.84
61318;BME280;47201;40.428;-8.436;2023-05-03T05:21:35;100016.34;;;18.97;66.54
61318;BME280;47201;40.428;-8.436;2023-05-03T05:23:36;100015.69;;;18.92;67.25
61318;BME280;47201;40.428;-8.436;2023-05-03T05:25:38;100017.41;;;18.93;67.10
61318;BME280;47201;40.428;-8.436;2023-05-03T05:27:39;100021.78;;;18.94;66.73
61318;BME280;47201;40.428;-8.436;2023-05-03T05:29:59;100031.59;;;18.92;66.52
61318;BME280;47201;40.428;-8.436;2023-05-03T05:32:18;100046.81;;;18.86;66.45
61318;BME280;47201;40.428;-8.436;2023-05-03T05:34:37;100045.25;;;18.82;66.60
61318;BME280;47201;40.428;-8.436;2023-05-03T05:36:38;100047.09;;;18.80;67.31
61318;BME280;47201;40.428;-8.436;2023-05-03T05:38:40;100041.94;;;18.77;67.41
61318;BME280;47201;40.428;-8.436;2023-05-03T05:40:59;100025.28;;;18.75;67.64
61318;BME280;47201;40.428;-8.436;2023-05-03T05:43:10;100029.69;;;18.75;67.88
61318;BME280;47201;40.428;-8.436;2023-05-03T05:45:16;100020.00;;;18.75;68.02
61318;BME280;47201;40.428;-8.436;2023-05-03T05:47:17;100019.91;;;18.77;67.17
61318;BME280;47201;40.428;-8.436;2023-05-03T05:49:20;100024.63;;;18.89;66.71
61318;BME280;47201;40.428;-8.436;2023-05-03T05:51:20;100029.72;;;18.94;66.77
61318;BME280;47201;40.428;-8.436;2023-05-03T05:53:21;100043.09;;;18.91;66.62
61318;BME280;47201;40.428;-8.436;2023-05-03T05:55:30;100048.53;;;18.87;67.79
61318;BME280;47201;40.428;-8.436;2023-05-03T05:57:32;100046.31;;;18.78;67.79
61318;BME280;47201;40.428;-8.436;2023-05-03T05:59:34;100051.69;;;18.77;68.22
61318;BME280;47201;40.428;-8.436;2023-05-03T06:01:35;100049.25;;;18.72;67.70
61318;BME280;47201;40.428;-8.436;2023-05-03T06:03:36;100048.41;;;18.71;67.77
61318;BME280;47201;40.428;-8.436;2023-05-03T06:05:40;100047.19;;;18.79;67.52
61318;BME280;47201;40.428;-8.436;2023-05-03T06:07:43;100048.66;;;18.84;67.51
61318;BME280;47201;40.428;-8.436;2023-05-03T06:09:44;100057.41;;;18.86;67.28
61318;BME280;47201;40.428;-8.436;2023-05-03T06:12:04;100051.91;;;18.91;67.35
61318;BME280;47201;40.428;-8.436;2023-05-03T06:14:08;100049.88;;;18.98;67.23
61318;BME280;47201;40.428;-8.436;2023-05-03T06:16:11;100057.34;;;19.07;66.80
61318;BME280;47201;40.428;-8.436;2023-05-03T06:18:11;100064.03;;;19.16;66.76
61318;BME280;47201;40.428;-8.436;2023-05-03T06:20:12;100067.09;;;19.26;66.20
61318;BME280;47201;40.428;-8.436;2023-05-03T06:22:14;100074.31;;;19.41;65.65
61318;BME280;47201;40.428;-8.436;2023-05-03T06:24:15;100073.78;;;19.52;65.53
61318;BME280;47201;40.428;-8.436;2023-05-03T06:26:21;100080.97;;;19.68;65.07
61318;BME280;47201;40.428;-8.436;2023-05-03T06:28:24;100080.94;;;19.87;64.15
61318;BME280;47201;40.428;-8.436;2023-05-03T06:30:27;100080.66;;;20.10;63.28
61318;BME280;47201;40.428;-8.436;2023-05-03T06:32:32;100077.94;;;20.28;62.54
61318;BME280;47201;40.428;-8.436;2023-05-03T06:34:32;100078.09;;;20.42;62.01
61318;BME280;47201;40.428;-8.436;2023-05-03T06:36:33;100089.84;;;20.54;61.70
61318;BME280;47201;40.428;-8.436;2023-05-03T06:38:36;100088.59;;;20.61;61.19
61318;BME280;47201;40.428;-8.436;2023-05-03T06:40:37;100088.94;;;20.71;61.22
61318;BME280;47201;40.428;-8.436;2023-05-03T06:42:40;100078.81;;;20.80;61.24
61318;BME280;47201;40.428;-8.436;2023-05-03T06:44:58;100084.66;;;20.86;61.41
61318;BME280;47201;40.428;-8.436;2023-05-03T06:46:59;100085.16;;;20.93;60.98
61318;BME280;47201;40.428;-8.436;2023-05-03T06:49:18;100088.59;;;21.11;60.81
61318;BME280;47201;40.428;-8.436;2023-05-03T06:51:19;100091.84;;;21.32;60.12
61318;BME280;47201;40.428;-8.436;2023-05-03T06:53:26;100104.81;;;21.54;59.56
61318;BME280;47201;40.428;-8.436;2023-05-03T06:55:28;100086.91;;;21.89;58.67
61318;BME280;47201;40.428;-8.436;2023-05-03T06:57:29;100086.31;;;22.44;57.16
61318;BME280;47201;40.428;-8.436;2023-05-03T06:59:29;100100.06;;;22.94;55.37
61318;BME280;47201;40.428;-8.436;2023-05-03T07:01:30;100097.84;;;23.30;54.63
61318;BME280;47201;40.428;-8.436;2023-05-03T07:03:50;100105.63;;;23.88;53.25
61318;BME280;47201;40.428;-8.436;2023-05-03T07:05:50;100099.00;;;24.47;52.58
61318;BME280;47201;40.428;-8.436;2023-05-03T07:07:51;100097.09;;;24.87;51.56
61318;BME280;47201;40.428;-8.436;2023-05-03T07:09:51;100100.47;;;25.15;50.65
61318;BME280;47201;40.428;-8.436;2023-05-03T07:11:52;100094.97;;;25.30;51.23
61318;BME280;47201;40.428;-8.436;2023-05-03T07:13:53;100100.47;;;25.88;51.00
61318;BME280;47201;40.428;-8.436;2023-05-03T07:15:53;100109.53;;;26.34;49.47
61318;BME280;47201;40.428;-8.436;2023-05-03T07:17:54;100102.38;;;26.57;49.07
61318;BME280;47201;40.428;-8.436;2023-05-03T07:19:55;100103.59;;;27.21;48.33
61318;BME280;47201;40.428;-8.436;2023-05-03T07:21:56;100106.00;;;28.33;46.94
61318;BME280;47201;40.428;-8.436;2023-05-03T07:23:56;100110.69;;;29.44;44.83
61318;BME280;47201;40.428;-8.436;2023-05-03T07:25:57;100117.38;;;29.69;44.69
61318;BME280;47201;40.428;-8.436;2023-05-03T07:27:58;100117.31;;;30.48;44.53
61318;BME280;47201;40.428;-8.436;2023-05-03T07:29:59;100123.34;;;31.35;43.43
61318;BME280;47201;40.428;-8.436;2023-05-03T07:32:00;100123.00;;;32.20;42.63
61318;BME280;47201;40.428;-8.436;2023-05-03T07:34:00;100128.13;;;33.19;41.85
61318;BME280;47201;40.428;-8.436;2023-05-03T07:36:01;100135.06;;;34.22;40.84
61318;BME280;47201;40.428;-8.436;2023-05-03T07:38:02;100132.16;;;35.45;39.97
61318;BME280;47201;40.428;-8.436;2023-05-03T07:40:03;100143.38;;;36.34;39.95
61318;BME280;47201;40.428;-8.436;2023-05-03T07:42:24;100131.50;;;36.80;40.97
61318;BME280;47201;40.428;-8.436;2023-05-03T07:44:24;100142.22;;;36.29;44.81
61318;BME280;47201;40.428;-8.436;2023-05-03T07:46:25;100137.03;;;35.57;48.56
61318;BME280;47201;40.428;-8.436;2023-05-03T07:48:26;100125.19;;;35.50;50.72
61318;BME280;47201;40.428;-8.436;2023-05-03T07:50:26;100131.69;;;35.64;52.10
61318;BME280;47201;40.428;-8.436;2023-05-03T07:52:27;100126.19;;;36.19;52.70
61318;BME280;47201;40.428;-8.436;2023-05-03T07:54:27;100125.69;;;36.54;53.73
61318;BME280;47201;40.428;-8.436;2023-05-03T07:56:28;100110.13;;;35.63;56.25
61318;BME280;47201;40.428;-8.436;2023-05-03T07:58:29;100104.25;;;34.07;60.95
61318;BME280;47201;40.428;-8.436;2023-05-03T08:00:29;100098.09;;;33.47;63.75
61318;BME280;47201;40.428;-8.436;2023-05-03T08:02:30;100090.56;;;33.24;65.55
61318;BME280;47201;40.428;-8.436;2023-05-03T08:04:30;100086.75;;;33.51;65.33
61318;BME280;47201;40.428;-8.436;2023-05-03T08:06:31;100096.47;;;33.19;66.01
61318;BME280;47201;40.428;-8.436;2023-05-03T08:08:32;100091.31;;;32.92;66.94
61318;BME280;47201;40.428;-8.436;2023-05-03T08:10:33;100100.47;;;32.99;67.17
61318;BME280;47201;40.428;-8.436;2023-05-03T08:12:37;100108.94;;;33.47;66.71
61318;BME280;47201;40.428;-8.436;2023-05-03T08:14:56;100123.03;;;34.08;64.25
61318;BME280;47201;40.428;-8.436;2023-05-03T08:16:56;100120.13;;;34.26;64.51
61318;BME280;47201;40.428;-8.436;2023-05-03T08:18:57;100115.78;;;33.92;65.51
61318;BME280;47201;40.428;-8.436;2023-05-03T08:20:57;100117.31;;;34.84;64.78
61318;BME280;47201;40.428;-8.436;2023-05-03T08:22:58;100120.88;;;35.24;64.10
61318;BME280;47201;40.428;-8.436;2023-05-03T08:24:58;100113.53;;;35.65;63.67
61318;BME280;47201;40.428;-8.436;2023-05-03T08:27:00;100123.22;;;34.40;66.24
61318;BME280;47201;40.428;-8.436;2023-05-03T08:29:01;100125.72;;;33.59;68.53
61318;BME280;47201;40.428;-8.436;2023-05-03T08:31:21;100121.22;;;32.82;70.65
61318;BME280;47201;40.428;-8.436;2023-05-03T08:33:21;100121.09;;;32.65;71.28
61318;BME280;47201;40.428;-8.436;2023-05-03T08:35:22;100119.28;;;32.48;71.33
61318;BME280;47201;40.428;-8.436;2023-05-03T08:37:22;100116.41;;;33.10;70.61
61318;BME280;47201;40.428;-8.436;2023-05-03T08:39:23;100115.91;;;34.24;68.27
61318;BME280;47201;40.428;-8.436;2023-05-03T08:41:29;100117.13;;;34.38;67.56
61318;BME280;47201;40.428;-8.436;2023-05-03T08:45:34;100117.75;;;35.04;67.73
61318;BME280;47201;40.428;-8.436;2023-05-03T08:47:35;100110.69;;;34.95;67.22
61318;BME280;47201;40.428;-8.436;2023-05-03T08:49:37;100114.03;;;34.49;68.37
61318;BME280;47201;40.428;-8.436;2023-05-03T08:51:39;100118.16;;;33.95;69.42
61318;BME280;47201;40.428;-8.436;2023-05-03T08:53:59;100110.97;;;32.94;71.45
61318;BME280;47201;40.428;-8.436;2023-05-03T08:56:26;100120.19;;;33.17;71.64
61318;BME280;47201;40.428;-8.436;2023-05-03T08:58:28;100118.28;;;33.10;71.82
61318;BME280;47201;40.428;-8.436;2023-05-03T09:00:28;100121.56;;;33.30;71.67
61318;BME280;47201;40.428;-8.436;2023-05-03T09:02:29;100118.19;;;32.58;72.56
61318;BME280;47201;40.428;-8.436;2023-05-03T09:04:33;100127.59;;;31.84;73.64
61318;BME280;47201;40.428;-8.436;2023-05-03T09:06:34;100131.19;;;31.92;74.18
61318;BME280;47201;40.428;-8.436;2023-05-03T09:08:41;100131.94;;;32.39;73.99
61318;BME280;47201;40.428;-8.436;2023-05-03T09:10:43;100138.16;;;32.66;73.87
61318;BME280;47201;40.428;-8.436;2023-05-03T09:12:43;100140.84;;;33.86;71.59
61318;BME280;47201;40.428;-8.436;2023-05-03T09:14:45;100142.16;;;33.82;71.38
61318;BME280;47201;40.428;-8.436;2023-05-03T09:16:45;100147.25;;;34.26;70.49
61318;BME280;47201;40.428;-8.436;2023-05-03T09:19:05;100142.03;;;33.92;71.02
61318;BME280;47201;40.428;-8.436;2023-05-03T09:21:08;100137.41;;;34.33;70.59
61318;BME280;47201;40.428;-8.436;2023-05-03T09:27:50;100141.94;;;33.50;71.81
61318;BME280;47201;40.428;-8.436;2023-05-03T09:30:03;100152.03;;;32.89;72.44
61318;BME280;47201;40.428;-8.436;2023-05-03T09:32:16;100152.25;;;33.04;72.23
61318;BME280;47201;40.428;-8.436;2023-05-03T09:34:20;100152.69;;;33.26;72.15
61318;BME280;47201;40.428;-8.436;2023-05-03T09:36:21;100146.28;;;32.84;73.17
61318;BME280;47201;40.428;-8.436;2023-05-03T09:38:40;100148.19;;;33.00;72.32
61318;BME280;47201;40.428;-8.436;2023-05-03T09:40:47;100139.91;;;32.75;73.04
61318;BME280;47201;40.428;-8.436;2023-05-03T09:43:08;100141.56;;;32.68;73.67
61318;BME280;47201;40.428;-8.436;2023-05-03T09:45:08;100137.34;;;32.65;73.71
61318;BME280;47201;40.428;-8.436;2023-05-03T09:47:27;100135.56;;;33.17;72.84
61318;BME280;47201;40.428;-8.436;2023-05-03T09:49:46;100145.44;;;32.65;73.46
61318;BME280;47201;40.428;-8.436;2023-05-03T09:51:46;100143.56;;;31.95;74.81
61318;BME280;47201;40.428;-8.436;2023-05-03T09:53:47;100150.81;;;32.12;74.83
61318;BME280;47201;40.428;-8.436;2023-05-03T09:55:47;100147.38;;;33.08;73.16
61318;BME280;47201;40.428;-8.436;2023-05-03T09:57:50;100150.53;;;33.37;72.32
61318;BME280;47201;40.428;-8.436;2023-05-03T09:59:50;100166.78;;;35.11;69.86
61318;BME280;47201;40.428;-8.436;2023-05-03T10:01:55;100171.88;;;35.77;68.17
61318;BME280;47201;40.428;-8.436;2023-05-03T10:04:14;100166.47;;;36.00;68.05
61318;BME280;47201;40.428;-8.436;2023-05-03T10:06:21;100173.19;;;36.28;67.90
61318;BME280;47201;40.428;-8.436;2023-05-03T10:08:32;100163.22;;;37.70;65.91
61318;BME280;47201;40.428;-8.436;2023-05-03T10:10:33;100164.38;;;37.82;65.84
61318;BME280;47201;40.428;-8.436;2023-05-03T10:12:52;100159.75;;;38.26;64.82
61318;BME280;47201;40.428;-8.436;2023-05-03T10:15:12;100163.22;;;37.70;66.02
61318;BME280;47201;40.428;-8.436;2023-05-03T10:17:21;100154.13;;;37.11;66.89
61318;BME280;47201;40.428;-8.436;2023-05-03T10:19:29;100150.84;;;37.15;67.01
61318;BME280;47201;40.428;-8.436;2023-05-03T10:21:54;100152.63;;;37.38;67.30
61318;BME280;47201;40.428;-8.436;2023-05-03T10:24:08;100150.66;;;37.02;67.24
61318;BME280;47201;40.428;-8.436;2023-05-03T10:28:12;100139.28;;;37.87;66.63
61318;BME280;47201;40.428;-8.436;2023-05-03T10:30:28;100141.25;;;38.21;65.81
61318;BME280;47201;40.428;-8.436;2023-05-03T10:32:35;100140.38;;;37.71;66.32
61318;BME280;47201;40.428;-8.436;2023-05-03T10:34:38;100130.22;;;37.65;67.25
61318;BME280;47201;40.428;-8.436;2023-05-03T10:37:02;100132.88;;;37.80;67.02
61318;BME280;47201;40.428;-8.436;2023-05-03T10:39:21;100122.88;;;38.08;66.70
61318;BME280;47201;40.428;-8.436;2023-05-03T10:41:25;100124.94;;;37.41;67.15
61318;BME280;47201;40.428;-8.436;2023-05-03T10:45:32;100118.75;;;37.91;66.71
61318;BME280;47201;40.428;-8.436;2023-05-03T10:47:33;100111.28;;;37.20;68.16
61318;BME280;47201;40.428;-8.436;2023-05-03T10:49:34;100107.47;;;35.78;70.02
61318;BME280;47201;40.428;-8.436;2023-05-03T10:51:53;100111.63;;;36.27;69.98
61318;BME280;47201;40.428;-8.436;2023-05-03T10:53:54;100108.28;;;37.14;68.59
61318;BME280;47201;40.428;-8.436;2023-05-03T10:56:08;100121.44;;;38.41;66.78
61318;BME280;47201;40.428;-8.436;2023-05-03T10:58:09;100100.47;;;38.42;66.52
61318;BME280;47201;40.428;-8.436;2023-05-03T11:00:13;100106.88;;;38.05;67.19
61318;BME280;47201;40.428;-8.436;2023-05-03T11:02:18;100102.06;;;38.01;67.51